sensor_id;sensor_type;location;lat;lon;timestamp;P1;durP1;ratioP1;P2;durP2;ratioP2
1376;SDS011;682;52.502;13.488;2023-05-07T00:00:56;16.60;;;14.90;;
1376;SDS011;682;52.502;13.488;2023-05-07T00:03:24;16.10;;;14.60;;
1376;SDS011;682;52.502;13.488;2023-05-07T00:05:54;15.50;;;14.20;;
1376;SDS011;682;52.502;13.488;2023-05-07T00:08:21;15.73;;;14.33;;
1376;SDS011;682;52.502;13.488;2023-05-07T00:10:48;16.50;;;14.93;;
1376;SDS011;682;52.502;13.488;2023-05-07T00:13:15;15.57;;;14.27;;
1376;SDS011;682;52.502;13.488;2023-05-07T00:15:42;15.47;;;14.00;;
1376;SDS011;682;52.502;13.488;2023-05-07T00:18:09;14.53;;;13.13;;
1376;SDS011;682;52.502;13.488;2023-05-07T00:20:36;14.70;;;13.23;;
1376;SDS011;682;52.502;13.488;2023-05-07T00:23:04;14.40;;;13.10;;
1376;SDS011;682;52.502;13.488;2023-05-07T00:25:31;14.40;;;13.10;;
1376;SDS011;682;52.502;13.488;2023-05-07T00:27:58;14.27;;;12.90;;
1376;SDS011;682;52.502;13.488;2023-05-07T00:30:28;13.97;;;12.67;;
1376;SDS011;682;52.502;13.488;2023-05-07T00:32:55;13.80;;;12.70;;
1376;SDS011;682;52.502;13.488;2023-05-07T00:35:22;15.30;;;14.07;;
1376;SDS011;682;52.502;13.488;2023-05-07T00:37:51;14.90;;;13.50;;
1376;SDS011;682;52.502;13.488;2023-05-07T00:40:19;14.20;;;13.00;;
1376;SDS011;682;52.502;13.488;2023-05-07T00:42:46;14.37;;;13.07;;
1376;SDS011;682;52.502;13.488;2023-05-07T00:45:14;15.53;;;14.03;;
1376;SDS011;682;52.502;13.488;2023-05-07T00:47:42;14.10;;;12.90;;
1376;SDS011;682;52.502;13.488;2023-05-07T00:50:09;14.40;;;13.13;;
1376;SDS011;682;52.502;13.488;2023-05-07T00:52:38;15.17;;;13.87;;
1376;SDS011;682;52.502;13.488;2023-05-07T00:55:09;15.83;;;14.23;;
1376;SDS011;682;52.502;13.488;2023-05-07T00:57:39;15.93;;;14.43;;
1376;SDS011;682;52.502;13.488;2023-05-07T01:00:07;14.13;;;12.73;;
1376;SDS011;682;52.502;13.488;2023-05-07T01:02:39;14.67;;;13.40;;
1376;SDS011;682;52.502;13.488;2023-05-07T01:05:07;15.70;;;14.37;;
1376;SDS011;682;52.502;13.488;2023-05-07T01:07:37;16.43;;;14.93;;
1376;SDS011;682;52.502;13.488;2023-05-07T01:10:06;15.57;;;14.07;;
1376;SDS011;682;52.502;13.488;2023-05-07T01:12:35;14.63;;;13.40;;
1376;SDS011;682;52.502;13.488;2023-05-07T01:15:05;14.53;;;13.33;;
1376;SDS011;682;52.502;13.488;2023-05-07T01:17:34;14.40;;;13.10;;
1376;SDS011;682;52.502;13.488;2023-05-07T01:20:03;15.73;;;14.33;;
1376;SDS011;682;52.502;13.488;2023-05-07T01:22:33;14.50;;;13.30;;
1376;SDS011;682;52.502;13.488;2023-05-07T01:25:01;14.57;;;13.33;;
1376;SDS011;682;52.502;13.488;2023-05-07T01:27:29;13.97;;;12.63;;
1376;SDS011;682;52.502;13.488;2023-05-07T01:29:58;15.07;;;13.67;;
1376;SDS011;682;52.502;13.488;2023-05-07T01:32:27;14.93;;;13.63;;
1376;SDS011;682;52.502;13.488;2023-05-07T01:34:59;14.00;;;12.77;;
1376;SDS011;682;52.502;13.488;2023-05-07T01:37:29;14.93;;;13.63;;
1376;SDS011;682;52.502;13.488;2023-05-07T01:39:57;13.70;;;12.30;;
1376;SDS011;682;52.502;13.488;2023-05-07T01:42:27;14.10;;;12.80;;
1376;SDS011;682;52.502;13.488;2023-05-07T01:44:55;13.77;;;12.50;;
1376;SDS011;682;52.502;13.488;2023-05-07T01:47:22;14.83;;;13.60;;
1376;SDS011;682;52.502;13.488;2023-05-07T01:49:51;13.93;;;12.77;;
1376;SDS011;682;52.502;13.488;2023-05-07T01:52:21;13.33;;;12.23;;
1376;SDS011;682;52.502;13.488;2023-05-07T01:54:50;13.77;;;12.60;;
1376;SDS011;682;52.502;13.488;2023-05-07T01:57:21;14.27;;;12.97;;
1376;SDS011;682;52.502;13.488;2023-05-07T01:59:50;13.53;;;12.33;;
1376;SDS011;682;52.502;13.488;2023-05-07T02:02:19;13.50;;;12.27;;
1376;SDS011;682;52.502;13.488;2023-05-07T02:04:47;14.57;;;13.17;;
1376;SDS011;682;52.502;13.488;2023-05-07T02:07:14;13.80;;;12.57;;
1376;SDS011;682;52.502;13.488;2023-05-07T02:09:41;15.07;;;13.63;;
1376;SDS011;682;52.502;13.488;2023-05-07T02:12:08;13.70;;;12.37;;
1376;SDS011;682;52.502;13.488;2023-05-07T02:14:37;14.60;;;13.17;;
1376;SDS011;682;52.502;13.488;2023-05-07T02:17:04;14.17;;;12.77;;
1376;SDS011;682;52.502;13.488;2023-05-07T02:19:31;13.60;;;12.47;;
1376;SDS011;682;52.502;13.488;2023-05-07T02:21:58;16.30;;;14.80;;
1376;SDS011;682;52.502;13.488;2023-05-07T02:24:26;16.40;;;13.40;;
1376;SDS011;682;52.502;13.488;2023-05-07T02:26:53;14.47;;;13.17;;
1376;SDS011;682;52.502;13.488;2023-05-07T02:29:20;13.93;;;12.80;;
1376;SDS011;682;52.502;13.488;2023-05-07T02:31:48;13.47;;;12.37;;
1376;SDS011;682;52.502;13.488;2023-05-07T02:34:18;15.40;;;12.87;;
1376;SDS011;682;52.502;13.488;2023-05-07T02:36:45;14.43;;;12.83;;
1376;SDS011;682;52.502;13.488;2023-05-07T02:39:12;15.93;;;14.53;;
1376;SDS011;682;52.502;13.488;2023-05-07T02:41:39;13.67;;;12.40;;
1376;SDS011;682;52.502;13.488;2023-05-07T02:44:06;15.17;;;13.77;;
1376;SDS011;682;52.502;13.488;2023-05-07T02:46:34;14.23;;;12.80;;
1376;SDS011;682;52.502;13.488;2023-05-07T02:49:02;13.10;;;11.50;;
1376;SDS011;682;52.502;13.488;2023-05-07T02:51:29;14.40;;;13.00;;
1376;SDS011;682;52.502;13.488;2023-05-07T02:53:58;13.43;;;12.13;;
1376;SDS011;682;52.502;13.488;2023-05-07T02:56:26;13.67;;;12.47;;
1376;SDS011;682;52.502;13.488;2023-05-07T02:58:53;13.60;;;12.30;;
1376;SDS011;682;52.502;13.488;2023-05-07T03:01:20;13.60;;;12.37;;
1376;SDS011;682;52.502;13.488;2023-05-07T03:03:47;13.80;;;12.50;;
1376;SDS011;682;52.502;13.488;2023-05-07T03:06:15;16.07;;;11.87;;
1376;SDS011;682;52.502;13.488;2023-05-07T03:08:43;12.80;;;11.60;;
1376;SDS011;682;52.502;13.488;2023-05-07T03:11:10;12.80;;;11.70;;
1376;SDS011;682;52.502;13.488;2023-05-07T03:13:38;14.43;;;13.20;;
1376;SDS011;682;52.502;13.488;2023-05-07T03:16:05;13.83;;;12.47;;
1376;SDS011;682;52.502;13.488;2023-05-07T03:18:32;12.93;;;11.83;;
1376;SDS011;682;52.502;13.488;2023-05-07T03:20:59;15.00;;;13.50;;
1376;SDS011;682;52.502;13.488;2023-05-07T03:23:27;13.37;;;12.27;;
1376;SDS011;682;52.502;13.488;2023-05-07T03:25:54;14.07;;;12.80;;
1376;SDS011;682;52.502;13.488;2023-05-07T03:28:21;15.20;;;13.80;;
1376;SDS011;682;52.502;13.488;2023-05-07T03:30:48;15.70;;;12.27;;
1376;SDS011;682;52.502;13.488;2023-05-07T03:33:15;15.33;;;12.90;;
1376;SDS011;682;52.502;13.488;2023-05-07T03:35:42;14.30;;;12.93;;
1376;SDS011;682;52.502;13.488;2023-05-07T03:38:09;13.90;;;12.70;;
1376;SDS011;682;52.502;13.488;2023-05-07T03:40:39;13.77;;;12.50;;
1376;SDS011;682;52.502;13.488;2023-05-07T03:43:05;15.17;;;13.80;;
1376;SDS011;682;52.502;13.488;2023-05-07T03:45:34;13.20;;;12.07;;
1376;SDS011;682;52.502;13.488;2023-05-07T03:48:01;13.70;;;12.50;;
1376;SDS011;682;52.502;13.488;2023-05-07T03:50:28;13.97;;;12.70;;
1376;SDS011;682;52.502;13.488;2023-05-07T03:52:54;13.00;;;11.90;;
1376;SDS011;682;52.502;13.488;2023-05-07T03:55:21;13.67;;;12.37;;
1376;SDS011;682;52.502;13.488;2023-05-07T03:57:50;13.20;;;12.00;;
1376;SDS011;682;52.502;13.488;2023-05-07T04:00:17;13.10;;;11.97;;
1376;SDS011;682;52.502;13.488;2023-05-07T04:02:45;12.83;;;11.60;;
1376;SDS011;682;52.502;13.488;2023-05-07T04:05:12;13.23;;;12.03;;
1376;SDS011;682;52.502;13.488;2023-05-07T04:07:42;12.97;;;11.70;;
1376;SDS011;682;52.502;13.488;2023-05-07T04:10:09;14.00;;;12.77;;
1376;SDS011;682;52.502;13.488;2023-05-07T04:12:38;13.00;;;11.80;;
1376;SDS011;682;52.502;13.488;2023-05-07T04:15:07;12.60;;;11.60;;
1376;SDS011;682;52.502;13.488;2023-05-07T04:17:34;12.97;;;11.80;;
1376;SDS011;682;52.502;13.488;2023-05-07T04:20:02;12.83;;;11.70;;
1376;SDS011;682;52.502;13.488;2023-05-07T04:22:29;13.50;;;12.10;;
1376;SDS011;682;52.502;13.488;2023-05-07T04:24:56;13.83;;;11.53;;
1376;SDS011;682;52.502;13.488;2023-05-07T04:27:23;12.37;;;11.20;;
1376;SDS011;682;52.502;13.488;2023-05-07T04:29:50;13.30;;;12.10;;
1376;SDS011;682;52.502;13.488;2023-05-07T04:32:22;11.83;;;10.67;;
1376;SDS011;682;52.502;13.488;2023-05-07T04:34:51;11.80;;;10.70;;
1376;SDS011;682;52.502;13.488;2023-05-07T04:37:18;11.80;;;10.70;;
1376;SDS011;682;52.502;13.488;2023-05-07T04:39:45;10.27;;;9.30;;
1376;SDS011;682;52.502;13.488;2023-05-07T04:42:14;11.23;;;10.30;;
1376;SDS011;682;52.502;13.488;2023-05-07T04:44:41;12.10;;;10.90;;
1376;SDS011;682;52.502;13.488;2023-05-07T04:47:08;11.73;;;10.77;;
1376;SDS011;682;52.502;13.488;2023-05-07T04:49:36;10.97;;;9.97;;
1376;SDS011;682;52.502;13.488;2023-05-07T04:52:04;11.10;;;10.00;;
1376;SDS011;682;52.502;13.488;2023-05-07T04:54:31;11.13;;;10.17;;
1376;SDS011;682;52.502;13.488;2023-05-07T04:56:58;9.23;;;8.53;;
1376;SDS011;682;52.502;13.488;2023-05-07T04:59:25;9.77;;;8.37;;
1376;SDS011;682;52.502;13.488;2023-05-07T05:01:52;9.43;;;8.63;;
1376;SDS011;682;52.502;13.488;2023-05-07T05:04:19;9.70;;;8.90;;
1376;SDS011;682;52.502;13.488;2023-05-07T05:06:51;10.27;;;9.20;;
1376;SDS011;682;52.502;13.488;2023-05-07T05:09:18;10.30;;;9.30;;
1376;SDS011;682;52.502;13.488;2023-05-07T05:11:45;10.03;;;9.13;;
1376;SDS011;682;52.502;13.488;2023-05-07T05:14:12;10.70;;;9.60;;
1376;SDS011;682;52.502;13.488;2023-05-07T05:16:39;10.40;;;9.40;;
1376;SDS011;682;52.502;13.488;2023-05-07T05:19:06;10.63;;;9.53;;
1376;SDS011;682;52.502;13.488;2023-05-07T05:21:34;9.73;;;8.80;;
1376;SDS011;682;52.502;13.488;2023-05-07T05:24:02;11.53;;;10.33;;
1376;SDS011;682;52.502;13.488;2023-05-07T05:26:30;11.27;;;10.17;;
1376;SDS011;682;52.502;13.488;2023-05-07T05:28:57;10.77;;;9.67;;
1376;SDS011;682;52.502;13.488;2023-05-07T05:31:24;12.40;;;11.30;;
1376;SDS011;682;52.502;13.488;2023-05-07T05:33:53;11.60;;;10.40;;
1376;SDS011;682;52.502;13.488;2023-05-07T05:36:20;10.60;;;9.47;;
1376;SDS011;682;52.502;13.488;2023-05-07T05:38:48;9.83;;;9.03;;
1376;SDS011;682;52.502;13.488;2023-05-07T05:41:16;10.60;;;9.60;;
1376;SDS011;682;52.502;13.488;2023-05-07T05:43:44;12.03;;;10.93;;
1376;SDS011;682;52.502;13.488;2023-05-07T05:46:11;10.70;;;9.60;;
1376;SDS011;682;52.502;13.488;2023-05-07T05:48:40;10.50;;;9.60;;
1376;SDS011;682;52.502;13.488;2023-05-07T05:51:20;10.20;;;9.20;;
1376;SDS011;682;52.502;13.488;2023-05-07T05:53:47;10.70;;;9.73;;
1376;SDS011;682;52.502;13.488;2023-05-07T05:56:15;11.87;;;10.67;;
1376;SDS011;682;52.502;13.488;2023-05-07T05:58:44;10.67;;;9.37;;
1376;SDS011;682;52.502;13.488;2023-05-07T06:01:11;11.33;;;10.33;;
1376;SDS011;682;52.502;13.488;2023-05-07T06:03:39;11.00;;;10.00;;
1376;SDS011;682;52.502;13.488;2023-05-07T06:06:06;11.50;;;10.50;;
1376;SDS011;682;52.502;13.488;2023-05-07T06:08:33;11.80;;;10.70;;
1376;SDS011;682;52.502;13.488;2023-05-07T06:11:01;10.67;;;9.57;;
1376;SDS011;682;52.502;13.488;2023-05-07T06:13:32;11.03;;;10.10;;
1376;SDS011;682;52.502;13.488;2023-05-07T06:16:00;10.33;;;9.43;;
1376;SDS011;682;52.502;13.488;2023-05-07T06:18:27;10.70;;;9.70;;
1376;SDS011;682;52.502;13.488;2023-05-07T06:20:57;9.90;;;8.93;;
1376;SDS011;682;52.502;13.488;2023-05-07T06:23:26;10.50;;;9.57;;
1376;SDS011;682;52.502;13.488;2023-05-07T06:25:54;9.73;;;8.93;;
1376;SDS011;682;52.502;13.488;2023-05-07T06:28:22;11.50;;;10.30;;
1376;SDS011;682;52.502;13.488;2023-05-07T06:30:51;10.10;;;9.20;;
1376;SDS011;682;52.502;13.488;2023-05-07T06:33:19;9.53;;;8.73;;
1376;SDS011;682;52.502;13.488;2023-05-07T06:35:47;9.53;;;8.53;;
1376;SDS011;682;52.502;13.488;2023-05-07T06:38:15;10.00;;;9.00;;
1376;SDS011;682;52.502;13.488;2023-05-07T06:40:48;10.03;;;9.10;;
1376;SDS011;682;52.502;13.488;2023-05-07T06:43:16;10.50;;;9.60;;
1376;SDS011;682;52.502;13.488;2023-05-07T06:45:44;9.37;;;8.47;;
1376;SDS011;682;52.502;13.488;2023-05-07T06:48:13;9.77;;;7.97;;
1376;SDS011;682;52.502;13.488;2023-05-07T06:50:43;9.03;;;8.23;;
1376;SDS011;682;52.502;13.488;2023-05-07T06:53:10;8.97;;;8.17;;
1376;SDS011;682;52.502;13.488;2023-05-07T06:55:37;9.57;;;8.77;;
1376;SDS011;682;52.502;13.488;2023-05-07T06:58:04;8.83;;;8.03;;
1376;SDS011;682;52.502;13.488;2023-05-07T07:00:31;9.63;;;8.77;;
1376;SDS011;682;52.502;13.488;2023-05-07T07:03:01;9.03;;;8.13;;
1376;SDS011;682;52.502;13.488;2023-05-07T07:05:30;8.97;;;8.17;;
1376;SDS011;682;52.502;13.488;2023-05-07T07:07:57;7.37;;;6.77;;
1376;SDS011;682;52.502;13.488;2023-05-07T07:10:26;8.07;;;7.47;;
1376;SDS011;682;52.502;13.488;2023-05-07T07:12:53;9.03;;;8.20;;
1376;SDS011;682;52.502;13.488;2023-05-07T07:15:23;8.10;;;7.40;;
1376;SDS011;682;52.502;13.488;2023-05-07T07:17:50;7.90;;;7.20;;
1376;SDS011;682;52.502;13.488;2023-05-07T07:20:18;8.83;;;8.13;;
1376;SDS011;682;52.502;13.488;2023-05-07T07:22:48;9.13;;;7.67;;
1376;SDS011;682;52.502;13.488;2023-05-07T07:25:15;8.53;;;7.83;;
1376;SDS011;682;52.502;13.488;2023-05-07T07:27:43;7.13;;;6.53;;
1376;SDS011;682;52.502;13.488;2023-05-07T07:30:11;8.03;;;7.20;;
1376;SDS011;682;52.502;13.488;2023-05-07T07:32:38;7.33;;;5.90;;
1376;SDS011;682;52.502;13.488;2023-05-07T07:35:08;7.47;;;6.80;;
1376;SDS011;682;52.502;13.488;2023-05-07T07:37:35;7.10;;;6.50;;
1376;SDS011;682;52.502;13.488;2023-05-07T07:40:09;6.70;;;6.20;;
1376;SDS011;682;52.502;13.488;2023-05-07T07:42:37;6.83;;;6.23;;
1376;SDS011;682;52.502;13.488;2023-05-07T07:45:09;7.83;;;7.20;;
1376;SDS011;682;52.502;13.488;2023-05-07T07:47:37;7.33;;;6.83;;
1376;SDS011;682;52.502;13.488;2023-05-07T07:50:06;6.90;;;5.50;;
1376;SDS011;682;52.502;13.488;2023-05-07T07:52:37;7.50;;;6.20;;
1376;SDS011;682;52.502;13.488;2023-05-07T07:55:08;5.27;;;4.93;;
1376;SDS011;682;52.502;13.488;2023-05-07T07:57:38;5.83;;;5.33;;
1376;SDS011;682;52.502;13.488;2023-05-07T08:00:05;5.93;;;5.40;;
1376;SDS011;682;52.502;13.488;2023-05-07T08:02:34;6.50;;;5.73;;
1376;SDS011;682;52.502;13.488;2023-05-07T08:05:05;6.00;;;5.50;;
1376;SDS011;682;52.502;13.488;2023-05-07T08:07:37;5.93;;;5.33;;
1376;SDS011;682;52.502;13.488;2023-05-07T08:10:05;5.80;;;5.40;;
1376;SDS011;682;52.502;13.488;2023-05-07T08:12:35;4.53;;;4.23;;
1376;SDS011;682;52.502;13.488;2023-05-07T08:15:03;5.63;;;4.60;;
1376;SDS011;682;52.502;13.488;2023-05-07T08:17:35;6.30;;;5.70;;
1376;SDS011;682;52.502;13.488;2023-05-07T08:20:02;5.47;;;4.97;;
1376;SDS011;682;52.502;13.488;2023-05-07T08:22:30;5.73;;;5.23;;
1376;SDS011;682;52.502;13.488;2023-05-07T08:24:57;5.40;;;5.00;;
1376;SDS011;682;52.502;13.488;2023-05-07T08:27:28;5.03;;;4.53;;
1376;SDS011;682;52.502;13.488;2023-05-07T08:29:56;5.53;;;4.60;;
1376;SDS011;682;52.502;13.488;2023-05-07T08:32:23;5.23;;;4.80;;
1376;SDS011;682;52.502;13.488;2023-05-07T08:34:52;4.63;;;4.30;;
1376;SDS011;682;52.502;13.488;2023-05-07T08:37:19;5.23;;;4.77;;
1376;SDS011;682;52.502;13.488;2023-05-07T08:39:49;5.37;;;4.87;;
1376;SDS011;682;52.502;13.488;2023-05-07T08:42:16;4.40;;;4.10;;
1376;SDS011;682;52.502;13.488;2023-05-07T08:44:45;4.90;;;4.50;;
1376;SDS011;682;52.502;13.488;2023-05-07T08:47:13;5.10;;;4.03;;
1376;SDS011;682;52.502;13.488;2023-05-07T08:49:42;4.80;;;4.40;;
1376;SDS011;682;52.502;13.488;2023-05-07T08:52:11;4.47;;;4.17;;
1376;SDS011;682;52.502;13.488;2023-05-07T08:54:39;5.07;;;4.63;;
1376;SDS011;682;52.502;13.488;2023-05-07T08:57:07;7.17;;;4.80;;
1376;SDS011;682;52.502;13.488;2023-05-07T08:59:36;5.60;;;5.10;;
1376;SDS011;682;52.502;13.488;2023-05-07T09:02:04;6.03;;;4.50;;
1376;SDS011;682;52.502;13.488;2023-05-07T09:04:36;7.20;;;4.77;;
1376;SDS011;682;52.502;13.488;2023-05-07T09:07:03;4.37;;;3.97;;
1376;SDS011;682;52.502;13.488;2023-05-07T09:09:32;7.73;;;6.93;;
1376;SDS011;682;52.502;13.488;2023-05-07T09:12:02;5.63;;;5.10;;
1376;SDS011;682;52.502;13.488;2023-05-07T09:14:31;4.87;;;4.30;;
1376;SDS011;682;52.502;13.488;2023-05-07T09:16:58;5.53;;;5.07;;
1376;SDS011;682;52.502;13.488;2023-05-07T09:19:33;6.10;;;4.90;;
1376;SDS011;682;52.502;13.488;2023-05-07T09:22:00;5.07;;;4.73;;
1376;SDS011;682;52.502;13.488;2023-05-07T09:24:28;4.87;;;4.47;;
1376;SDS011;682;52.502;13.488;2023-05-07T09:27:00;5.33;;;4.80;;
1376;SDS011;682;52.502;13.488;2023-05-07T09:29:27;4.70;;;4.20;;
1376;SDS011;682;52.502;13.488;2023-05-07T09:32:00;5.87;;;4.07;;
1376;SDS011;682;52.502;13.488;2023-05-07T09:34:31;4.30;;;3.90;;
1376;SDS011;682;52.502;13.488;2023-05-07T09:36:58;4.47;;;4.17;;
1376;SDS011;682;52.502;13.488;2023-05-07T09:39:38;5.03;;;4.23;;
1376;SDS011;682;52.502;13.488;2023-05-07T09:42:06;4.03;;;3.60;;
1376;SDS011;682;52.502;13.488;2023-05-07T09:44:36;4.23;;;3.83;;
1376;SDS011;682;52.502;13.488;2023-05-07T09:47:05;6.53;;;4.10;;
1376;SDS011;682;52.502;13.488;2023-05-07T09:49:35;4.67;;;4.27;;
1376;SDS011;682;52.502;13.488;2023-05-07T09:52:04;4.70;;;4.30;;
1376;SDS011;682;52.502;13.488;2023-05-07T09:54:34;3.90;;;3.50;;
1376;SDS011;682;52.502;13.488;2023-05-07T09:57:03;4.23;;;3.63;;
1376;SDS011;682;52.502;13.488;2023-05-07T09:59:32;3.60;;;3.10;;
1376;SDS011;682;52.502;13.488;2023-05-07T10:02:01;3.60;;;3.10;;
1376;SDS011;682;52.502;13.488;2023-05-07T10:04:31;2.90;;;2.70;;
1376;SDS011;682;52.502;13.488;2023-05-07T10:07:02;3.40;;;3.10;;
1376;SDS011;682;52.502;13.488;2023-05-07T10:09:30;3.20;;;2.90;;
1376;SDS011;682;52.502;13.488;2023-05-07T10:11:58;2.57;;;2.37;;
1376;SDS011;682;52.502;13.488;2023-05-07T10:14:30;3.93;;;2.47;;
1376;SDS011;682;52.502;13.488;2023-05-07T10:16:57;2.50;;;2.30;;
1376;SDS011;682;52.502;13.488;2023-05-07T10:19:25;2.20;;;2.10;;
1376;SDS011;682;52.502;13.488;2023-05-07T10:21:59;3.83;;;2.97;;
1376;SDS011;682;52.502;13.488;2023-05-07T10:24:32;2.40;;;2.20;;
1376;SDS011;682;52.502;13.488;2023-05-07T10:27:00;2.73;;;2.50;;
1376;SDS011;682;52.502;13.488;2023-05-07T10:29:33;3.50;;;2.70;;
1376;SDS011;682;52.502;13.488;2023-05-07T10:32:12;2.60;;;2.23;;
1376;SDS011;682;52.502;13.488;2023-05-07T10:34:51;2.30;;;2.20;;
1376;SDS011;682;52.502;13.488;2023-05-07T10:37:22;3.70;;;2.67;;
1376;SDS011;682;52.502;13.488;2023-05-07T10:39:51;3.10;;;2.90;;
1376;SDS011;682;52.502;13.488;2023-05-07T10:42:18;3.47;;;3.10;;
1376;SDS011;682;52.502;13.488;2023-05-07T10:44:48;2.30;;;2.10;;
1376;SDS011;682;52.502;13.488;2023-05-07T10:47:16;2.77;;;2.57;;
1376;SDS011;682;52.502;13.488;2023-05-07T10:58:54;2.60;;;2.00;;
1376;SDS011;682;52.502;13.488;2023-05-07T11:04:17;2.67;;;2.47;;
1376;SDS011;682;52.502;13.488;2023-05-07T11:09:55;2.53;;;2.33;;
1376;SDS011;682;52.502;13.488;2023-05-07T11:15:37;3.10;;;2.70;;
1376;SDS011;682;52.502;13.488;2023-05-07T11:18:13;3.40;;;2.70;;
1376;SDS011;682;52.502;13.488;2023-05-07T11:20:45;3.00;;;2.43;;
1376;SDS011;682;52.502;13.488;2023-05-07T11:26:19;3.10;;;2.70;;
1376;SDS011;682;52.502;13.488;2023-05-07T11:28:47;3.23;;;2.37;;
1376;SDS011;682;52.502;13.488;2023-05-07T11:31:17;2.87;;;2.67;;
1376;SDS011;682;52.502;13.488;2023-05-07T11:33:47;2.60;;;2.40;;
1376;SDS011;682;52.502;13.488;2023-05-07T11:36:15;2.07;;;1.87;;
1376;SDS011;682;52.502;13.488;2023-05-07T11:38:42;2.83;;;2.63;;
1376;SDS011;682;52.502;13.488;2023-05-07T11:41:10;2.50;;;2.30;;
1376;SDS011;682;52.502;13.488;2023-05-07T11:43:40;3.00;;;2.70;;
1376;SDS011;682;52.502;13.488;2023-05-07T11:46:20;3.27;;;2.57;;
1376;SDS011;682;52.502;13.488;2023-05-07T11:48:47;2.73;;;2.30;;
1376;SDS011;682;52.502;13.488;2023-05-07T11:51:18;3.43;;;2.10;;
1376;SDS011;682;52.502;13.488;2023-05-07T11:53:47;2.27;;;2.07;;
1376;SDS011;682;52.502;13.488;2023-05-07T11:56:14;2.50;;;1.93;;
1376;SDS011;682;52.502;13.488;2023-05-07T11:58:46;3.90;;;2.60;;
1376;SDS011;682;52.502;13.488;2023-05-07T12:01:16;3.03;;;2.10;;
1376;SDS011;682;52.502;13.488;2023-05-07T12:03:44;3.77;;;2.47;;
1376;SDS011;682;52.502;13.488;2023-05-07T12:06:12;5.10;;;2.70;;
1376;SDS011;682;52.502;13.488;2023-05-07T12:08:41;2.80;;;2.17;;
1376;SDS011;682;52.502;13.488;2023-05-07T12:11:15;5.67;;;2.30;;
1376;SDS011;682;52.502;13.488;2023-05-07T12:13:56;2.53;;;2.33;;
1376;SDS011;682;52.502;13.488;2023-05-07T12:16:28;3.97;;;2.00;;
1376;SDS011;682;52.502;13.488;2023-05-07T12:18:55;2.10;;;1.97;;
1376;SDS011;682;52.502;13.488;2023-05-07T12:21:25;3.60;;;2.17;;
1376;SDS011;682;52.502;13.488;2023-05-07T12:23:52;3.23;;;1.70;;
1376;SDS011;682;52.502;13.488;2023-05-07T12:26:28;2.53;;;2.10;;
1376;SDS011;682;52.502;13.488;2023-05-07T12:28:58;2.00;;;1.90;;
1376;SDS011;682;52.502;13.488;2023-05-07T12:31:25;3.00;;;2.27;;
1376;SDS011;682;52.502;13.488;2023-05-07T12:33:55;1.90;;;1.80;;
1376;SDS011;682;52.502;13.488;2023-05-07T12:36:22;2.83;;;2.63;;
1376;SDS011;682;52.502;13.488;2023-05-07T12:38:50;2.63;;;2.33;;
1376;SDS011;682;52.502;13.488;2023-05-07T12:41:18;1.93;;;1.83;;
1376;SDS011;682;52.502;13.488;2023-05-07T12:43:52;2.30;;;2.10;;
1376;SDS011;682;52.502;13.488;2023-05-07T12:46:26;4.20;;;2.10;;
1376;SDS011;682;52.502;13.488;2023-05-07T12:48:55;2.07;;;1.90;;
1376;SDS011;682;52.502;13.488;2023-05-07T12:51:22;3.03;;;2.20;;
1376;SDS011;682;52.502;13.488;2023-05-07T12:53:49;14.77;;;13.40;;
1376;SDS011;682;52.502;13.488;2023-05-07T12:56:16;2.00;;;1.80;;
1376;SDS011;682;52.502;13.488;2023-05-07T12:58:43;2.30;;;1.57;;
1376;SDS011;682;52.502;13.488;2023-05-07T13:01:12;2.57;;;2.23;;
1376;SDS011;682;52.502;13.488;2023-05-07T13:03:40;2.20;;;2.00;;
1376;SDS011;682;52.502;13.488;2023-05-07T13:06:08;2.03;;;1.93;;
1376;SDS011;682;52.502;13.488;2023-05-07T13:08:37;1.90;;;1.80;;
1376;SDS011;682;52.502;13.488;2023-05-07T13:11:09;2.50;;;1.80;;
1376;SDS011;682;52.502;13.488;2023-05-07T13:13:36;2.37;;;2.17;;
1376;SDS011;682;52.502;13.488;2023-05-07T13:16:05;2.27;;;2.00;;
1376;SDS011;682;52.502;13.488;2023-05-07T13:18:35;3.20;;;2.20;;
1376;SDS011;682;52.502;13.488;2023-05-07T13:21:02;2.90;;;2.40;;
1376;SDS011;682;52.502;13.488;2023-05-07T13:23:29;2.50;;;2.30;;
1376;SDS011;682;52.502;13.488;2023-05-07T13:25:56;2.40;;;2.20;;
1376;SDS011;682;52.502;13.488;2023-05-07T13:28:23;3.00;;;2.10;;
1376;SDS011;682;52.502;13.488;2023-05-07T13:30:51;4.27;;;3.87;;
1376;SDS011;682;52.502;13.488;2023-05-07T13:33:19;2.80;;;2.00;;
1376;SDS011;682;52.502;13.488;2023-05-07T13:35:48;2.40;;;2.20;;
1376;SDS011;682;52.502;13.488;2023-05-07T13:38:15;1.90;;;1.70;;
1376;SDS011;682;52.502;13.488;2023-05-07T13:40:42;2.20;;;2.00;;
1376;SDS011;682;52.502;13.488;2023-05-07T13:43:09;2.60;;;2.40;;
1376;SDS011;682;52.502;13.488;2023-05-07T13:45:39;2.53;;;2.10;;
1376;SDS011;682;52.502;13.488;2023-05-07T13:48:06;2.73;;;2.53;;
1376;SDS011;682;52.502;13.488;2023-05-07T13:50:33;2.37;;;2.17;;
1376;SDS011;682;52.502;13.488;2023-05-07T13:53:02;1.80;;;1.70;;
1376;SDS011;682;52.502;13.488;2023-05-07T13:55:29;2.10;;;2.00;;
1376;SDS011;682;52.502;13.488;2023-05-07T13:57:56;2.20;;;2.00;;
1376;SDS011;682;52.502;13.488;2023-05-07T14:00:23;2.63;;;2.10;;
1376;SDS011;682;52.502;13.488;2023-05-07T14:02:51;3.00;;;2.17;;
1376;SDS011;682;52.502;13.488;2023-05-07T14:05:18;2.83;;;2.47;;
1376;SDS011;682;52.502;13.488;2023-05-07T14:07:45;3.07;;;2.00;;
1376;SDS011;682;52.502;13.488;2023-05-07T14:10:15;3.97;;;2.13;;
1376;SDS011;682;52.502;13.488;2023-05-07T14:12:43;2.90;;;2.70;;
1376;SDS011;682;52.502;13.488;2023-05-07T14:15:10;2.90;;;2.30;;
1376;SDS011;682;52.502;13.488;2023-05-07T14:17:37;2.43;;;2.20;;
1376;SDS011;682;52.502;13.488;2023-05-07T14:20:05;4.37;;;2.30;;
1376;SDS011;682;52.502;13.488;2023-05-07T14:22:32;2.60;;;2.10;;
1376;SDS011;682;52.502;13.488;2023-05-07T14:24:59;2.77;;;2.10;;
1376;SDS011;682;52.502;13.488;2023-05-07T14:27:28;2.00;;;1.83;;
1376;SDS011;682;52.502;13.488;2023-05-07T14:29:55;1.93;;;1.83;;
1376;SDS011;682;52.502;13.488;2023-05-07T14:32:22;2.40;;;1.97;;
1376;SDS011;682;52.502;13.488;2023-05-07T14:34:49;3.20;;;2.30;;
1376;SDS011;682;52.502;13.488;2023-05-07T14:37:16;2.37;;;2.17;;
1376;SDS011;682;52.502;13.488;2023-05-07T14:39:44;3.40;;;2.80;;
1376;SDS011;682;52.502;13.488;2023-05-07T14:42:12;3.43;;;2.40;;
1376;SDS011;682;52.502;13.488;2023-05-07T14:44:43;3.60;;;2.33;;
1376;SDS011;682;52.502;13.488;2023-05-07T14:47:11;2.50;;;2.30;;
1376;SDS011;682;52.502;13.488;2023-05-07T14:49:39;2.10;;;2.00;;
1376;SDS011;682;52.502;13.488;2023-05-07T14:52:07;2.40;;;2.20;;
1376;SDS011;682;52.502;13.488;2023-05-07T14:54:35;2.50;;;1.90;;
1376;SDS011;682;52.502;13.488;2023-05-07T14:57:04;2.30;;;1.80;;
1376;SDS011;682;52.502;13.488;2023-05-07T14:59:32;1.90;;;1.73;;
1376;SDS011;682;52.502;13.488;2023-05-07T15:02:01;1.57;;;1.43;;
1376;SDS011;682;52.502;13.488;2023-05-07T15:04:36;2.80;;;2.10;;
1376;SDS011;682;52.502;13.488;2023-05-07T15:07:05;1.83;;;1.73;;
1376;SDS011;682;52.502;13.488;2023-05-07T15:09:33;1.87;;;1.77;;
1376;SDS011;682;52.502;13.488;2023-05-07T15:12:01;2.40;;;2.20;;
1376;SDS011;682;52.502;13.488;2023-05-07T15:14:29;2.70;;;1.93;;
1376;SDS011;682;52.502;13.488;2023-05-07T15:16:56;3.73;;;2.23;;
1376;SDS011;682;52.502;13.488;2023-05-07T15:19:24;2.37;;;1.60;;
1376;SDS011;682;52.502;13.488;2023-05-07T15:21:54;2.07;;;1.60;;
1376;SDS011;682;52.502;13.488;2023-05-07T15:24:22;1.80;;;1.70;;
1376;SDS011;682;52.502;13.488;2023-05-07T15:26:51;2.60;;;2.30;;
1376;SDS011;682;52.502;13.488;2023-05-07T15:29:18;2.47;;;2.17;;
1376;SDS011;682;52.502;13.488;2023-05-07T15:31:45;1.87;;;1.77;;
1376;SDS011;682;52.502;13.488;2023-05-07T15:34:12;1.60;;;1.50;;